createdAt,value
2022-08-28T00:00:38.064Z,13.45
2022-08-28T00:03:06.427Z,13.88
2022-08-28T00:05:35.020Z,13.88
2022-08-28T00:08:03.520Z,16.63
2022-08-28T00:10:31.398Z,12.45
2022-08-28T00:13:00.005Z,12.30
2022-08-28T00:15:32.657Z,11.07
2022-08-28T00:18:01.401Z,13.25
2022-08-28T00:20:30.193Z,13.10
2022-08-28T00:22:58.404Z,9.73
2022-08-28T00:25:28.964Z,8.63
2022-08-28T00:27:57.920Z,11.65
2022-08-28T00:30:30.508Z,10.68
2022-08-28T00:33:01.093Z,8.40
2022-08-28T00:35:29.664Z,7.15
2022-08-28T00:37:58.023Z,8.20
2022-08-28T00:40:32.824Z,5.93
2022-08-28T00:43:02.622Z,6.22
2022-08-28T00:45:39.289Z,4.60
2022-08-28T00:48:07.884Z,6.05
2022-08-28T00:50:51.328Z,6.80
2022-08-28T00:53:20.095Z,4.93
2022-08-28T00:55:50.362Z,5.63
2022-08-28T00:58:20.145Z,5.57
2022-08-28T01:00:49.934Z,4.70
2022-08-28T01:03:18.005Z,7.35
2022-08-28T01:05:48.001Z,7.35
2022-08-28T01:08:16.350Z,3.83
2022-08-28T01:10:49.396Z,6.85
2022-08-28T01:13:18.118Z,4.75
2022-08-28T01:15:46.670Z,5.63
2022-08-28T01:18:17.095Z,4.20
2022-08-28T01:20:53.206Z,4.30
2022-08-28T01:23:32.253Z,8.05
2022-08-28T01:26:01.990Z,5.75
2022-08-28T01:28:39.829Z,6.53
2022-08-28T01:31:10.590Z,4.60
2022-08-28T01:33:41.386Z,5.78
2022-08-28T01:36:12.204Z,3.80
2022-08-28T01:38:41.360Z,5.50
2022-08-28T01:41:11.832Z,3.38
2022-08-28T01:43:41.363Z,3.50
2022-08-28T01:46:09.886Z,2.83
2022-08-28T01:48:42.663Z,2.55
2022-08-28T01:51:12.414Z,2.45
2022-08-28T01:53:41.486Z,2.88
2022-08-28T01:56:12.970Z,2.40
2022-08-28T01:58:41.915Z,1.73
2022-08-28T02:01:11.937Z,2.20
2022-08-28T02:03:41.758Z,2.45
2022-08-28T02:06:10.142Z,1.73
2022-08-28T02:08:37.941Z,2.60
2022-08-28T02:11:08.177Z,2.30
2022-08-28T02:13:38.691Z,1.60
2022-08-28T02:16:09.261Z,1.98
2022-08-28T02:18:38.798Z,2.78
2022-08-28T02:21:08.614Z,1.90
2022-08-28T02:23:37.931Z,2.35
2022-08-28T02:26:05.890Z,1.75
2022-08-28T02:28:33.810Z,1.70
2022-08-28T02:31:03.100Z,1.60
2022-08-28T02:33:31.039Z,2.15
2022-08-28T02:35:58.896Z,4.18
2022-08-28T02:38:26.826Z,1.60
2022-08-28T02:40:54.574Z,3.15
2022-08-28T02:43:22.420Z,3.15
2022-08-28T02:45:50.277Z,1.40
2022-08-28T02:48:19.898Z,1.98
2022-08-28T02:50:47.883Z,2.00
2022-08-28T02:53:15.651Z,2.28
2022-08-28T02:55:43.411Z,1.80
2022-08-28T02:58:11.333Z,1.42
2022-08-28T03:00:39.231Z,2.03
2022-08-28T03:03:06.997Z,1.63
2022-08-28T03:05:36.099Z,2.05
2022-08-28T03:08:04.374Z,1.90
2022-08-28T03:10:32.569Z,1.70
2022-08-28T03:13:00.412Z,3.55
2022-08-28T03:15:28.417Z,3.50
2022-08-28T03:17:56.263Z,2.15
2022-08-28T03:20:24.075Z,1.88
2022-08-28T03:23:25.530Z,2.10
2022-08-28T03:25:53.368Z,1.70
2022-08-28T03:28:21.445Z,3.10
2022-08-28T03:30:49.707Z,1.98
2022-08-28T03:33:17.769Z,2.30
2022-08-28T03:35:45.849Z,2.15
2022-08-28T03:38:16.061Z,1.92
2022-08-28T03:40:46.434Z,2.15
2022-08-28T03:43:15.976Z,2.30
2022-08-28T03:45:52.772Z,2.92
2022-08-28T03:48:21.027Z,2.15
2022-08-28T03:50:49.002Z,2.38
2022-08-28T03:53:18.165Z,2.50
2022-08-28T03:55:46.263Z,5.72
2022-08-28T03:58:18.860Z,2.72
2022-08-28T04:00:47.398Z,4.07
2022-08-28T04:03:15.613Z,2.15
2022-08-28T04:05:44.992Z,3.10
2022-08-28T04:08:15.986Z,3.67
2022-08-28T04:10:47.596Z,3.05
2022-08-28T04:13:17.231Z,3.42
2022-08-28T04:15:45.860Z,3.70
2022-08-28T04:18:13.919Z,4.65
2022-08-28T04:20:41.766Z,3.50
2022-08-28T04:23:14.225Z,3.90
2022-08-28T04:25:42.042Z,3.45
2022-08-28T04:28:11.249Z,3.60
2022-08-28T04:30:41.581Z,3.67
2022-08-28T04:33:10.539Z,5.18
2022-08-28T04:35:38.592Z,5.75
2022-08-28T04:38:06.406Z,5.70
2022-08-28T04:40:34.238Z,5.90
2022-08-28T04:43:02.149Z,4.85
2022-08-28T04:45:31.339Z,9.98
2022-08-28T04:48:00.256Z,9.25
2022-08-28T04:50:31.141Z,8.45
2022-08-28T04:52:59.237Z,10.13
2022-08-28T04:55:36.423Z,8.23
2022-08-28T04:58:16.135Z,9.20
2022-08-28T05:00:48.020Z,12.35
2022-08-28T05:03:17.636Z,9.95
2022-08-28T05:05:47.235Z,9.00
2022-08-28T05:08:16.845Z,10.98
2022-08-28T05:10:46.371Z,11.18
2022-08-28T05:13:15.688Z,11.70
2022-08-28T05:15:47.115Z,10.60
2022-08-28T05:18:16.934Z,12.05
2022-08-28T05:20:47.519Z,12.68
2022-08-28T05:23:16.947Z,9.95
2022-08-28T05:25:48.308Z,9.27
2022-08-28T05:28:18.106Z,8.07
2022-08-28T05:30:48.144Z,9.23
2022-08-28T05:33:17.041Z,6.45
2022-08-28T05:35:47.302Z,6.40
2022-08-28T05:38:17.040Z,6.40
2022-08-28T05:40:47.849Z,5.88
2022-08-28T05:43:17.456Z,4.90
2022-08-28T05:45:46.769Z,6.32
2022-08-28T05:48:16.267Z,5.50
2022-08-28T05:50:47.477Z,5.93
2022-08-28T05:53:15.597Z,5.30
2022-08-28T05:55:43.473Z,6.85
2022-08-28T05:58:25.396Z,4.03
2022-08-28T06:00:54.556Z,5.32
2022-08-28T06:03:22.995Z,6.15
2022-08-28T06:05:55.638Z,4.82
2022-08-28T06:08:23.528Z,4.20
2022-08-28T06:10:51.296Z,3.83
2022-08-28T06:13:19.106Z,4.53
2022-08-28T06:15:48.319Z,4.78
2022-08-28T06:18:18.143Z,3.95
2022-08-28T06:20:47.348Z,4.13
2022-08-28T06:23:24.067Z,5.00
2022-08-28T06:25:52.997Z,3.28
2022-08-28T06:28:22.945Z,4.43
2022-08-28T06:31:15.935Z,3.15
2022-08-28T06:33:42.490Z,3.95
2022-08-28T06:36:11.280Z,4.13
2022-08-28T06:38:39.464Z,3.95
2022-08-28T06:41:10.099Z,4.90
2022-08-28T06:43:38.191Z,4.07
2022-08-28T06:46:06.110Z,4.60
2022-08-28T06:48:34.116Z,4.05
2022-08-28T06:51:07.710Z,4.95
2022-08-28T06:53:35.532Z,5.18
2022-08-28T06:56:07.677Z,4.35
2022-08-28T06:58:36.801Z,3.95
2022-08-28T07:01:07.640Z,3.83
2022-08-28T07:03:36.041Z,3.60
2022-08-28T07:06:15.153Z,4.53
2022-08-28T07:08:44.660Z,3.88
2022-08-28T07:11:16.094Z,2.75
2022-08-28T07:13:45.584Z,3.83
2022-08-28T07:16:15.594Z,2.60
2022-08-28T07:18:43.969Z,3.75
2022-08-28T07:21:14.581Z,3.38
2022-08-28T07:23:44.108Z,3.17
2022-08-28T07:26:15.666Z,2.72
2022-08-28T07:28:43.885Z,5.00
2022-08-28T07:31:16.174Z,2.40
2022-08-28T07:33:45.034Z,3.42
2022-08-28T07:36:28.806Z,3.17
2022-08-28T07:39:02.347Z,3.75
2022-08-28T07:41:32.696Z,3.40
2022-08-28T07:44:18.325Z,3.65
2022-08-28T07:46:46.669Z,4.07
2022-08-28T07:49:17.182Z,3.08
2022-08-28T07:51:46.645Z,4.13
2022-08-28T07:54:16.909Z,5.68
2022-08-28T07:56:46.518Z,4.15
2022-08-28T07:59:16.892Z,6.43
2022-08-28T08:01:47.758Z,5.80
2022-08-28T08:04:17.988Z,4.30
2022-08-28T08:06:47.098Z,4.80
2022-08-28T08:09:17.625Z,5.80
2022-08-28T08:11:46.572Z,4.97
2022-08-28T08:14:15.025Z,4.97
2022-08-28T08:16:44.714Z,6.20
2022-08-28T08:19:14.828Z,6.07
2022-08-28T08:21:44.670Z,7.57
2022-08-28T08:24:19.781Z,8.75
2022-08-28T08:26:55.206Z,12.98
2022-08-28T08:29:28.279Z,11.70
2022-08-28T08:31:58.068Z,12.80
2022-08-28T08:34:26.463Z,13.98
2022-08-28T08:36:54.279Z,13.90
2022-08-28T08:39:23.436Z,9.40
2022-08-28T08:41:54.649Z,11.32
2022-08-28T08:44:34.080Z,12.68
2022-08-28T08:47:15.294Z,12.43
2022-08-28T08:49:50.874Z,14.20
2022-08-28T08:52:38.344Z,12.95
2022-08-28T08:55:17.580Z,10.90
2022-08-28T08:57:49.291Z,8.75
2022-08-28T09:00:19.562Z,11.18
2022-08-28T09:02:54.326Z,10.00
2022-08-28T09:05:29.624Z,8.88
2022-08-28T09:08:02.610Z,10.48
2022-08-28T09:10:40.126Z,12.95
2022-08-28T09:13:18.658Z,11.80
2022-08-28T09:15:50.498Z,6.70
2022-08-28T09:18:22.827Z,12.20
2022-08-28T09:20:51.883Z,7.80
2022-08-28T09:23:20.548Z,7.93
2022-08-28T09:25:56.041Z,12.60
2022-08-28T09:28:30.341Z,7.85
2022-08-28T09:31:02.887Z,7.35
2022-08-28T09:33:35.966Z,9.48
2022-08-28T09:36:32.627Z,8.13
2022-08-28T09:39:07.569Z,6.65
2022-08-28T09:41:57.766Z,6.82
2022-08-28T09:44:25.922Z,8.40
2022-08-28T09:46:54.060Z,9.18
2022-08-28T09:49:29.006Z,5.97
2022-08-28T09:51:59.532Z,8.57
2022-08-28T09:54:33.928Z,9.30
2022-08-28T09:57:04.502Z,7.60
2022-08-28T09:59:32.649Z,10.32
2022-08-28T10:02:20.903Z,12.45
2022-08-28T10:04:59.893Z,13.27
2022-08-28T10:07:36.896Z,12.30
2022-08-28T10:10:18.770Z,16.48
2022-08-28T10:13:01.526Z,18.48
2022-08-28T10:15:33.827Z,15.18
2022-08-28T10:18:34.070Z,16.00
2022-08-28T10:21:10.510Z,18.23
2022-08-28T10:23:49.509Z,20.55
2022-08-28T10:26:30.114Z,21.65
2022-08-28T10:29:09.903Z,22.70
2022-08-28T10:31:46.807Z,24.48
2022-08-28T10:34:29.466Z,24.90
2022-08-28T10:37:04.119Z,27.80
2022-08-28T10:39:47.289Z,31.48
2022-08-28T10:42:20.757Z,30.23
2022-08-28T10:44:53.489Z,24.00
2022-08-28T10:47:23.649Z,22.92
2022-08-28T10:49:58.634Z,23.52
2022-08-28T10:52:31.981Z,30.73
2022-08-28T10:55:06.015Z,25.55
2022-08-28T10:57:39.917Z,27.67
2022-08-28T11:00:13.142Z,25.77
2022-08-28T11:02:43.168Z,31.52
2022-08-28T11:05:11.802Z,24.67
2022-08-28T11:07:45.638Z,26.38
2022-08-28T11:10:20.971Z,19.55
2022-08-28T11:12:51.383Z,25.30
2022-08-28T11:15:44.444Z,19.52
2022-08-28T11:19:05.525Z,17.20
2022-08-28T11:21:38.160Z,24.33
2022-08-28T11:24:10.433Z,17.15
2022-08-28T11:26:47.045Z,24.33
2022-08-28T11:29:49.398Z,22.05
2022-08-28T11:32:41.377Z,23.27
2022-08-28T11:35:48.465Z,23.73
2022-08-28T11:38:53.520Z,18.65
2022-08-28T11:41:24.501Z,22.25
2022-08-28T11:44:13.465Z,26.30
2022-08-28T11:46:42.888Z,14.35
2022-08-28T11:49:45.047Z,16.98
2022-08-28T11:52:44.094Z,15.90
2022-08-28T11:55:22.883Z,17.55
2022-08-28T12:00:49.371Z,14.95
2022-08-28T12:03:27.567Z,24.83
2022-08-28T12:05:59.013Z,17.50
2022-08-28T12:09:09.912Z,13.10
2022-08-28T12:12:06.573Z,15.45
2022-08-28T12:15:08.403Z,16.20
2022-08-28T12:17:46.891Z,18.02
2022-08-28T12:20:24.024Z,22.98
2022-08-28T12:22:55.831Z,15.13
2022-08-28T12:25:33.269Z,16.90
2022-08-28T12:28:08.082Z,16.90
2022-08-28T12:30:50.519Z,18.65
2022-08-28T12:33:26.620Z,20.73
2022-08-28T12:36:02.198Z,15.07
2022-08-28T12:38:34.535Z,14.98
2022-08-28T12:41:03.303Z,13.02
2022-08-28T12:43:35.751Z,17.73
2022-08-28T12:46:20.073Z,14.70
2022-08-28T12:48:51.250Z,16.60
2022-08-28T12:51:22.423Z,9.50
2022-08-28T12:53:55.184Z,14.30
2022-08-28T12:56:25.399Z,12.23
2022-08-28T12:58:53.857Z,16.45
2022-08-28T13:01:29.401Z,9.68
2022-08-28T13:03:59.862Z,13.48
2022-08-28T13:06:30.243Z,14.02
2022-08-28T13:09:03.317Z,14.80
2022-08-28T13:11:34.882Z,26.50
2022-08-28T13:14:04.320Z,11.20
2022-08-28T13:16:39.972Z,14.20
2022-08-28T13:19:14.581Z,14.63
2022-08-28T13:21:58.488Z,9.80
2022-08-28T13:24:43.896Z,9.25
2022-08-28T13:27:25.599Z,13.57
2022-08-28T13:30:00.036Z,10.52
2022-08-28T13:32:30.500Z,10.75
2022-08-28T13:35:33.409Z,16.25
2022-08-28T13:38:03.779Z,10.38
2022-08-28T13:40:57.458Z,9.55
2022-08-28T13:43:28.137Z,9.07
2022-08-28T13:45:56.489Z,14.23
2022-08-28T13:48:26.823Z,16.58
2022-08-28T13:50:59.810Z,16.48
2022-08-28T13:53:27.639Z,11.65
2022-08-28T13:55:58.417Z,9.32
2022-08-28T13:58:26.354Z,11.45
2022-08-28T14:00:55.180Z,14.05
2022-08-28T14:03:38.396Z,12.90
2022-08-28T14:06:09.223Z,16.52
2022-08-28T14:08:37.084Z,14.88
2022-08-28T14:11:07.234Z,13.88
2022-08-28T14:13:35.205Z,9.57
2022-08-28T14:16:05.723Z,10.80
2022-08-28T14:18:33.832Z,15.38
2022-08-28T14:21:01.697Z,7.55
2022-08-28T14:23:29.654Z,8.65
2022-08-28T14:25:57.464Z,10.25
2022-08-28T14:28:26.621Z,12.68
2022-08-28T14:30:54.563Z,13.63
2022-08-28T14:33:22.687Z,18.95
2022-08-28T14:35:51.086Z,12.82
2022-08-28T14:38:19.095Z,19.50
2022-08-28T14:40:46.887Z,8.18
2022-08-28T14:43:15.506Z,11.55
2022-08-28T14:45:46.784Z,15.45
2022-08-28T14:48:15.671Z,11.27
2022-08-28T14:50:44.670Z,9.10
2022-08-28T14:53:14.574Z,27.08
2022-08-28T14:55:44.622Z,11.85
2022-08-28T14:58:13.561Z,8.73
2022-08-28T15:00:42.531Z,17.80
2022-08-28T15:03:12.790Z,12.40
2022-08-28T15:05:41.621Z,10.27
2022-08-28T15:08:10.385Z,10.70
2022-08-28T15:10:39.266Z,10.15
2022-08-28T15:13:09.971Z,9.50
2022-08-28T15:15:39.418Z,14.70
2022-08-28T15:18:08.006Z,11.52
2022-08-28T15:20:40.910Z,13.65
2022-08-28T15:23:10.007Z,13.20
2022-08-28T15:25:43.338Z,15.25
2022-08-28T15:28:11.689Z,10.63
2022-08-28T15:30:49.874Z,9.13
2022-08-28T15:33:18.266Z,11.93
2022-08-28T15:35:47.585Z,13.82
2022-08-28T15:38:15.531Z,13.73
2022-08-28T15:41:01.392Z,16.70
2022-08-28T15:43:29.430Z,12.23
2022-08-28T15:45:57.311Z,13.25
2022-08-28T15:48:25.302Z,14.95
2022-08-28T15:50:54.726Z,8.50
2022-08-28T15:53:22.705Z,18.45
2022-08-28T15:55:51.008Z,19.38
2022-08-28T15:58:19.634Z,12.60
2022-08-28T16:00:47.654Z,12.32
2022-08-28T16:03:15.698Z,12.55
2022-08-28T16:05:45.678Z,10.27
2022-08-28T16:08:15.222Z,11.07
2022-08-28T16:10:48.820Z,12.48
2022-08-28T16:13:17.584Z,12.02
2022-08-28T16:15:46.602Z,13.52
2022-08-28T16:18:16.551Z,9.02
2022-08-28T16:20:46.340Z,10.40
2022-08-28T16:23:16.135Z,14.07
2022-08-28T16:25:45.050Z,10.85
2022-08-28T16:28:14.444Z,14.43
2022-08-28T16:30:43.848Z,13.50
2022-08-28T16:33:31.520Z,8.13
2022-08-28T16:36:02.273Z,9.05
2022-08-28T16:38:31.487Z,13.95
2022-08-28T16:40:59.477Z,14.40
2022-08-28T16:43:27.629Z,15.30
2022-08-28T16:45:56.437Z,10.68
2022-08-28T16:48:24.576Z,13.52
2022-08-28T16:50:52.425Z,13.75
2022-08-28T16:53:27.261Z,13.20
2022-08-28T16:55:58.064Z,8.10
2022-08-28T16:58:26.072Z,14.98
2022-08-28T17:00:55.060Z,14.25
2022-08-28T17:03:26.510Z,10.05
2022-08-28T17:05:56.247Z,8.32
2022-08-28T17:08:24.605Z,16.23
2022-08-28T17:10:52.464Z,12.07
2022-08-28T17:13:23.792Z,7.68
2022-08-28T17:15:52.685Z,14.18
2022-08-28T17:18:20.697Z,14.07
2022-08-28T17:21:07.078Z,11.23
2022-08-28T17:23:44.440Z,10.48
2022-08-28T17:26:15.365Z,13.60
2022-08-28T17:28:44.921Z,11.40
2022-08-28T17:31:14.284Z,13.93
2022-08-28T17:33:45.191Z,15.07
2022-08-28T17:36:32.460Z,11.70
2022-08-28T17:39:01.577Z,11.90
2022-08-28T17:41:29.845Z,12.43
2022-08-28T17:43:59.133Z,8.20
2022-08-28T17:46:27.231Z,13.75
2022-08-28T17:49:00.645Z,12.20
2022-08-28T17:51:42.074Z,8.05
2022-08-28T17:54:12.934Z,9.63
2022-08-28T17:56:41.153Z,11.18
2022-08-28T17:59:11.031Z,10.48
2022-08-28T18:01:39.409Z,11.40
2022-08-28T18:04:07.600Z,10.82
2022-08-28T18:06:36.055Z,15.18
2022-08-28T18:09:06.730Z,10.80
2022-08-28T18:11:38.421Z,11.85
2022-08-28T18:14:07.054Z,10.20
2022-08-28T18:16:38.495Z,9.40
2022-08-28T18:19:08.086Z,14.25
2022-08-28T18:21:36.660Z,12.80
2022-08-28T18:24:05.344Z,13.32
2022-08-28T18:26:33.255Z,11.73
2022-08-28T18:29:03.764Z,12.18
2022-08-28T18:31:34.049Z,9.32
2022-08-28T18:34:03.905Z,12.07
2022-08-28T18:36:31.905Z,9.38
2022-08-28T18:38:59.744Z,8.15
2022-08-28T18:41:43.206Z,9.93
2022-08-28T18:44:14.527Z,13.65
2022-08-28T18:46:43.094Z,12.40
2022-08-28T18:49:13.049Z,13.40
2022-08-28T18:51:41.796Z,14.88
2022-08-28T18:54:09.904Z,13.75
2022-08-28T18:56:38.383Z,9.98
2022-08-28T18:59:06.654Z,16.48
2022-08-28T19:01:35.006Z,12.93
2022-08-28T19:04:03.185Z,11.80
2022-08-28T19:06:33.947Z,12.80
2022-08-28T19:09:01.787Z,12.70
2022-08-28T19:11:31.332Z,12.02
2022-08-28T19:13:59.631Z,9.88
2022-08-28T19:16:32.663Z,15.50
2022-08-28T19:19:01.296Z,14.38
2022-08-28T19:21:30.187Z,15.05
2022-08-28T19:24:00.132Z,14.00
2022-08-28T19:26:29.118Z,14.98
2022-08-28T19:28:57.685Z,11.35
2022-08-28T19:31:28.275Z,13.52
2022-08-28T19:33:57.300Z,14.38
2022-08-28T19:36:27.143Z,17.50
2022-08-28T19:38:55.166Z,11.70
2022-08-28T19:41:24.650Z,13.63
2022-08-28T19:43:53.422Z,10.65
2022-08-28T19:46:24.700Z,12.82
2022-08-28T19:48:54.740Z,13.90
2022-08-28T19:51:24.838Z,14.07
2022-08-28T19:53:59.025Z,13.77
2022-08-28T19:56:30.242Z,18.88
2022-08-28T19:59:01.055Z,14.50
2022-08-28T20:01:31.521Z,14.88
2022-08-28T20:04:01.435Z,10.60
2022-08-28T20:06:32.140Z,22.27
2022-08-28T20:09:00.465Z,14.63
2022-08-28T20:11:30.799Z,13.55
2022-08-28T20:14:03.875Z,11.85
2022-08-28T20:16:34.641Z,14.07
2022-08-28T20:19:03.932Z,14.77
2022-08-28T20:21:37.327Z,14.50
2022-08-28T20:24:07.294Z,14.82
2022-08-28T20:26:37.644Z,15.95
2022-08-28T20:29:07.232Z,18.13
2022-08-28T20:31:35.697Z,11.50
2022-08-28T20:34:04.066Z,16.70
2022-08-28T20:36:31.887Z,13.48
2022-08-28T20:39:00.028Z,8.80
2022-08-28T20:41:28.459Z,12.23
2022-08-28T20:43:58.017Z,24.40
2022-08-28T20:46:26.240Z,10.50
2022-08-28T20:48:54.071Z,12.38
2022-08-28T20:51:42.417Z,16.83
2022-08-28T20:54:10.499Z,14.55
2022-08-28T20:56:38.762Z,13.25
2022-08-28T20:59:08.170Z,17.45
2022-08-28T21:01:36.433Z,12.25
2022-08-28T21:04:05.157Z,15.30
2022-08-28T21:06:33.678Z,10.52
2022-08-28T21:09:01.575Z,13.52
2022-08-28T21:11:29.458Z,14.00
2022-08-28T21:13:57.256Z,10.98
2022-08-28T21:16:26.444Z,13.55
2022-08-28T21:19:14.430Z,13.80
2022-08-28T21:21:42.371Z,17.55
2022-08-28T21:24:13.636Z,11.32
2022-08-28T21:26:42.705Z,16.25
2022-08-28T21:29:11.862Z,10.82
2022-08-28T21:31:48.727Z,20.02
2022-08-28T21:34:17.466Z,19.50
2022-08-28T21:36:50.445Z,13.60
2022-08-28T21:39:20.348Z,11.77
2022-08-28T21:41:48.769Z,11.68
2022-08-28T21:44:17.517Z,12.93
2022-08-28T21:46:47.003Z,12.38
2022-08-28T21:49:14.730Z,10.80
2022-08-28T21:51:42.561Z,15.68
2022-08-28T21:54:10.549Z,14.07
2022-08-28T21:56:38.370Z,10.52
2022-08-28T21:59:06.356Z,14.90
2022-08-28T22:01:34.345Z,10.10
2022-08-28T22:04:04.170Z,15.35
2022-08-28T22:06:32.300Z,11.27
2022-08-28T22:09:00.120Z,14.48
2022-08-28T22:11:28.459Z,12.30
2022-08-28T22:13:56.770Z,17.20
2022-08-28T22:16:25.612Z,11.35
2022-08-28T22:18:53.681Z,14.95
2022-08-28T22:21:44.428Z,15.77
2022-08-28T22:24:13.240Z,13.65
2022-08-28T22:26:41.928Z,15.00
2022-08-28T22:29:10.089Z,11.45
2022-08-28T22:32:04.165Z,12.68
2022-08-28T22:34:32.160Z,14.40
2022-08-28T22:37:02.160Z,13.45
2022-08-28T22:39:29.954Z,14.70
2022-08-28T22:41:57.720Z,16.48
2022-08-28T22:44:25.477Z,18.58
2022-08-28T22:46:53.316Z,15.13
2022-08-28T22:49:21.084Z,11.18
2022-08-28T22:51:49.216Z,23.83
2022-08-28T22:54:18.743Z,13.73
2022-08-28T22:56:46.510Z,11.35
2022-08-28T22:59:14.296Z,11.13
2022-08-28T23:01:43.364Z,16.52
2022-08-28T23:04:11.701Z,13.55
2022-08-28T23:06:40.314Z,12.65
2022-08-28T23:09:08.710Z,13.63
2022-08-28T23:11:38.355Z,11.85
2022-08-28T23:14:06.644Z,13.70
2022-08-28T23:16:35.310Z,15.98
2022-08-28T23:19:07.882Z,11.30
2022-08-28T23:21:43.495Z,15.50
2022-08-28T23:24:12.554Z,13.48
2022-08-28T23:26:41.708Z,14.32
2022-08-28T23:29:10.151Z,11.07
2022-08-28T23:31:38.471Z,13.90
2022-08-28T23:34:08.239Z,16.85
2022-08-28T23:36:37.121Z,16.63
2022-08-28T23:39:07.777Z,17.40
2022-08-28T23:41:35.612Z,11.50
2022-08-28T23:44:08.501Z,13.48
2022-08-28T23:46:41.382Z,16.17
2022-08-28T23:49:09.791Z,13.02
2022-08-28T23:51:37.845Z,17.65
2022-08-28T23:54:06.849Z,16.02
2022-08-28T23:56:34.863Z,16.92
2022-08-28T23:59:05.066Z,13.85
